createdAt,value
2017-11-12T00:00:25.625Z,12.80
2017-11-12T00:02:53.844Z,12.82
2017-11-12T00:05:21.320Z,14.50
2017-11-12T00:07:49.530Z,14.60
2017-11-12T00:10:16.970Z,13.55
2017-11-12T00:12:45.233Z,13.62
2017-11-12T00:15:12.666Z,15.00
2017-11-12T00:17:40.113Z,15.48
2017-11-12T00:20:08.350Z,15.57
2017-11-12T00:22:35.830Z,14.00
2017-11-12T00:25:03.309Z,14.10
2017-11-12T00:27:30.762Z,13.90
2017-11-12T00:29:58.219Z,13.85
2017-11-12T00:32:26.425Z,14.45
2017-11-12T00:34:53.899Z,13.48
2017-11-12T00:37:21.348Z,13.55
2017-11-12T00:39:49.578Z,13.93
2017-11-12T00:42:17.075Z,13.13
2017-11-12T00:44:44.552Z,14.80
2017-11-12T00:47:12.001Z,14.82
2017-11-12T00:49:39.480Z,15.52
2017-11-12T00:52:06.931Z,14.60
2017-11-12T00:54:35.156Z,14.07
2017-11-12T00:57:02.602Z,13.93
2017-11-12T00:59:30.057Z,13.30
2017-11-12T01:01:58.279Z,13.45
2017-11-12T01:04:25.754Z,13.10
2017-11-12T01:06:53.186Z,13.82
2017-11-12T01:09:20.669Z,14.00
2017-11-12T01:11:48.879Z,13.52
2017-11-12T01:14:16.356Z,14.30
2017-11-12T01:16:43.825Z,13.80
2017-11-12T01:19:11.288Z,13.15
2017-11-12T01:21:39.514Z,13.32
2017-11-12T01:24:06.959Z,12.05
2017-11-12T01:26:35.163Z,12.05
2017-11-12T01:29:02.630Z,13.38
2017-11-12T01:31:30.892Z,11.80
2017-11-12T01:33:58.349Z,13.50
2017-11-12T01:36:25.781Z,12.93
2017-11-12T01:38:53.249Z,13.45
2017-11-12T01:41:21.483Z,11.98
2017-11-12T01:43:48.968Z,12.00
2017-11-12T01:46:16.380Z,12.52
2017-11-12T01:48:44.616Z,11.12
2017-11-12T01:51:12.065Z,14.07
2017-11-12T01:53:39.660Z,12.40
2017-11-12T01:56:07.106Z,11.68
2017-11-12T01:58:35.331Z,11.75
2017-11-12T02:01:02.785Z,10.90
2017-11-12T02:03:30.217Z,12.65
2017-11-12T02:05:57.666Z,11.98
2017-11-12T02:08:25.237Z,11.48
2017-11-12T02:10:52.674Z,11.65
2017-11-12T02:13:20.142Z,11.18
2017-11-12T02:15:48.358Z,11.73
2017-11-12T02:18:15.838Z,11.85
2017-11-12T02:20:43.293Z,11.98
2017-11-12T02:23:10.782Z,10.32
2017-11-12T02:25:38.212Z,12.25
2017-11-12T02:28:05.674Z,10.48
2017-11-12T02:30:33.137Z,10.90
2017-11-12T02:33:00.592Z,11.00
2017-11-12T02:35:28.064Z,11.50
2017-11-12T02:37:55.517Z,11.12
2017-11-12T02:40:23.025Z,11.15
2017-11-12T02:42:50.461Z,9.82
2017-11-12T02:45:18.676Z,10.95
2017-11-12T02:47:46.150Z,11.30
2017-11-12T02:50:13.651Z,10.70
2017-11-12T02:52:41.112Z,11.93
2017-11-12T02:55:08.585Z,11.23
2017-11-12T02:57:36.024Z,11.30
2017-11-12T03:00:04.226Z,10.73
2017-11-12T03:02:31.706Z,11.23
2017-11-12T03:04:59.306Z,13.02
2017-11-12T03:07:26.795Z,12.05
2017-11-12T03:09:54.241Z,11.90
2017-11-12T03:12:21.807Z,12.60
2017-11-12T03:14:49.289Z,12.00
2017-11-12T03:17:16.741Z,11.75
2017-11-12T03:19:44.976Z,11.10
2017-11-12T03:22:12.437Z,13.30
2017-11-12T03:24:39.893Z,9.95
2017-11-12T03:27:08.153Z,12.37
2017-11-12T03:29:35.624Z,10.88
2017-11-12T03:32:03.179Z,10.13
2017-11-12T03:34:30.626Z,10.45
2017-11-12T03:36:58.098Z,10.45
2017-11-12T03:39:25.534Z,11.55
2017-11-12T03:41:53.004Z,10.65
2017-11-12T03:44:20.445Z,10.43
2017-11-12T03:46:47.878Z,10.90
2017-11-12T03:49:16.097Z,11.38
2017-11-12T03:51:43.538Z,11.75
2017-11-12T03:54:11.771Z,11.05
2017-11-12T03:56:39.232Z,12.00
2017-11-12T03:59:06.700Z,12.45
2017-11-12T04:01:34.158Z,12.02
2017-11-12T04:04:02.393Z,13.52
2017-11-12T04:06:29.863Z,12.25
2017-11-12T04:08:57.313Z,13.40
2017-11-12T04:11:25.514Z,12.80
2017-11-12T04:13:52.993Z,14.60
2017-11-12T04:16:24.328Z,14.15
2017-11-12T04:18:51.770Z,12.90
2017-11-12T04:21:19.978Z,12.73
2017-11-12T04:23:47.529Z,13.05
2017-11-12T04:26:15.008Z,13.62
2017-11-12T04:28:42.429Z,12.50
2017-11-12T04:31:11.072Z,11.45
2017-11-12T04:33:38.511Z,12.55
2017-11-12T04:36:06.762Z,12.65
2017-11-12T04:38:34.205Z,12.23
2017-11-12T04:41:01.680Z,13.90
2017-11-12T04:43:29.123Z,12.60
2017-11-12T04:45:57.333Z,12.73
2017-11-12T04:48:24.822Z,13.07
2017-11-12T04:50:52.259Z,12.63
2017-11-12T04:53:20.492Z,13.15
2017-11-12T04:55:47.932Z,13.70
2017-11-12T04:58:15.402Z,12.48
2017-11-12T05:00:43.601Z,13.45
2017-11-12T05:03:11.045Z,14.30
2017-11-12T05:05:38.521Z,14.00
2017-11-12T05:08:05.964Z,12.88
2017-11-12T05:10:33.448Z,15.55
2017-11-12T05:13:00.909Z,13.82
2017-11-12T05:15:28.373Z,13.70
2017-11-12T05:17:55.818Z,15.07
2017-11-12T05:20:24.039Z,14.48
2017-11-12T05:22:51.481Z,12.73
2017-11-12T05:25:19.691Z,14.65
2017-11-12T05:27:47.162Z,14.00
2017-11-12T05:30:14.640Z,13.70
2017-11-12T05:32:42.088Z,12.45
2017-11-12T05:35:10.325Z,13.48
2017-11-12T05:37:37.815Z,13.05
2017-11-12T05:40:06.042Z,13.13
2017-11-12T05:42:33.560Z,14.93
2017-11-12T05:45:01.066Z,13.80
2017-11-12T05:47:28.529Z,12.50
2017-11-12T05:49:55.977Z,13.15
2017-11-12T05:52:23.451Z,13.45
2017-11-12T05:54:51.659Z,13.95
2017-11-12T05:57:19.114Z,13.55
2017-11-12T05:59:46.573Z,11.80
2017-11-12T06:02:14.777Z,13.65
2017-11-12T06:04:42.246Z,13.57
2017-11-12T06:07:10.465Z,11.38
2017-11-12T06:09:37.902Z,11.68
2017-11-12T06:12:06.132Z,13.25
2017-11-12T06:14:33.594Z,11.50
2017-11-12T06:17:01.048Z,11.50
2017-11-12T06:19:29.261Z,11.18
2017-11-12T06:21:56.739Z,12.45
2017-11-12T06:24:24.183Z,12.45
2017-11-12T06:26:52.399Z,11.57
2017-11-12T06:29:19.876Z,11.30
2017-11-12T06:31:47.337Z,12.50
2017-11-12T06:34:15.538Z,11.48
2017-11-12T06:36:42.992Z,12.70
2017-11-12T06:39:11.225Z,12.88
2017-11-12T06:41:38.670Z,11.40
2017-11-12T06:44:06.872Z,12.13
2017-11-12T06:46:34.334Z,13.75
2017-11-12T06:49:02.567Z,12.13
2017-11-12T06:51:30.006Z,12.48
2017-11-12T06:53:57.453Z,11.38
2017-11-12T06:56:24.921Z,11.27
2017-11-12T06:58:52.366Z,11.25
2017-11-12T07:01:19.855Z,11.68
2017-11-12T07:03:47.309Z,13.05
2017-11-12T07:06:14.765Z,13.05
2017-11-12T07:08:42.226Z,13.05
2017-11-12T07:11:09.821Z,12.20
2017-11-12T07:13:37.281Z,12.77
2017-11-12T07:16:05.502Z,13.40
2017-11-12T07:18:33.023Z,13.90
2017-11-12T07:21:00.477Z,14.63
2017-11-12T07:23:27.930Z,13.73
2017-11-12T07:25:55.376Z,15.20
2017-11-12T07:28:23.590Z,15.18
2017-11-12T07:30:51.039Z,13.75
2017-11-12T07:33:19.282Z,14.15
2017-11-12T07:35:46.793Z,14.50
2017-11-12T07:38:15.109Z,15.60
2017-11-12T07:40:42.584Z,16.17
2017-11-12T07:43:10.802Z,14.52
2017-11-12T07:45:38.234Z,15.45
2017-11-12T07:48:06.457Z,14.98
2017-11-12T07:50:34.022Z,14.52
2017-11-12T07:53:02.211Z,14.95
2017-11-12T07:55:29.705Z,14.65
2017-11-12T07:57:57.186Z,14.90
2017-11-12T08:00:24.658Z,15.82
2017-11-12T08:02:52.104Z,16.30
2017-11-12T08:05:20.333Z,15.05
2017-11-12T08:07:47.779Z,14.82
2017-11-12T08:10:15.244Z,14.65
2017-11-12T08:12:43.474Z,14.55
2017-11-12T08:15:11.001Z,14.68
2017-11-12T08:17:39.264Z,14.32
2017-11-12T08:20:06.694Z,12.45
2017-11-12T08:22:34.164Z,13.77
2017-11-12T08:25:02.355Z,14.60
2017-11-12T08:27:29.827Z,15.88
2017-11-12T08:29:57.286Z,16.30
2017-11-12T08:32:25.497Z,16.58
2017-11-12T08:34:53.096Z,14.50
2017-11-12T08:37:20.537Z,14.82
2017-11-12T08:39:48.768Z,16.90
2017-11-12T08:42:16.218Z,14.93
2017-11-12T08:44:43.674Z,15.57
2017-11-12T08:47:11.896Z,15.75
2017-11-12T08:49:39.354Z,16.02
2017-11-12T08:52:06.897Z,16.67
2017-11-12T08:54:34.363Z,16.77
2017-11-12T08:57:01.849Z,19.25
2017-11-12T08:59:29.288Z,16.42
2017-11-12T09:01:56.742Z,15.90
2017-11-12T09:04:24.217Z,14.23
2017-11-12T09:06:51.696Z,16.60
2017-11-12T09:09:19.142Z,16.33
2017-11-12T09:11:47.387Z,16.77
2017-11-12T09:14:14.836Z,17.52
2017-11-12T09:16:42.348Z,16.52
2017-11-12T09:19:09.806Z,16.40
2017-11-12T09:21:37.259Z,17.08
2017-11-12T09:24:04.931Z,18.73
2017-11-12T09:26:33.134Z,16.30
2017-11-12T09:29:00.599Z,16.48
2017-11-12T09:31:28.054Z,17.80
2017-11-12T09:33:55.500Z,17.95
2017-11-12T09:36:22.977Z,15.98
2017-11-12T09:38:50.402Z,16.85
2017-11-12T09:41:20.602Z,16.17
2017-11-12T09:43:48.051Z,15.75
2017-11-12T09:46:15.611Z,15.48
2017-11-12T09:48:43.065Z,17.80
2017-11-12T09:51:10.540Z,16.90
2017-11-12T09:53:37.994Z,15.75
2017-11-12T09:56:06.257Z,15.48
2017-11-12T09:58:37.557Z,15.00
2017-11-12T10:01:05.086Z,15.70
2017-11-12T10:03:37.441Z,15.18
2017-11-12T10:06:04.890Z,16.05
2017-11-12T10:08:33.121Z,15.05
2017-11-12T10:11:00.576Z,14.13
2017-11-12T10:13:28.056Z,14.32
2017-11-12T10:15:55.533Z,15.10
2017-11-12T10:18:22.983Z,12.65
2017-11-12T10:20:51.218Z,15.32
2017-11-12T10:23:18.663Z,15.32
2017-11-12T10:25:46.143Z,14.05
2017-11-12T10:28:13.603Z,15.05
2017-11-12T10:30:41.123Z,15.05
2017-11-12T10:33:08.602Z,14.55
2017-11-12T10:35:36.039Z,14.77
2017-11-12T10:38:03.512Z,14.43
2017-11-12T10:40:30.986Z,14.15
2017-11-12T10:42:58.501Z,13.52
2017-11-12T10:45:25.950Z,13.23
2017-11-12T10:47:53.417Z,12.75
2017-11-12T10:50:20.886Z,13.15
2017-11-12T10:52:48.347Z,11.50
2017-11-12T10:55:16.587Z,12.15
2017-11-12T10:57:44.360Z,9.13
2017-11-12T11:00:11.851Z,10.30
2017-11-12T11:02:39.349Z,8.30
2017-11-12T11:05:06.829Z,8.85
2017-11-12T11:07:34.278Z,9.82
2017-11-12T11:10:01.742Z,9.82
2017-11-12T11:12:29.696Z,9.93
2017-11-12T11:14:57.138Z,10.40
2017-11-12T11:17:24.612Z,8.88
2017-11-12T11:19:52.056Z,10.05
2017-11-12T11:22:19.634Z,10.07
2017-11-12T11:24:47.070Z,11.07
2017-11-12T11:27:14.557Z,10.25
2017-11-12T11:29:42.027Z,10.98
2017-11-12T11:32:09.492Z,9.50
2017-11-12T11:34:38.244Z,10.80
2017-11-12T11:37:06.451Z,11.20
2017-11-12T11:39:33.922Z,10.20
2017-11-12T11:42:01.853Z,8.57
2017-11-12T11:44:29.322Z,9.38
2017-11-12T11:46:57.908Z,11.07
2017-11-12T11:49:25.473Z,9.88
2017-11-12T11:51:52.926Z,8.38
2017-11-12T11:54:20.387Z,8.82
2017-11-12T11:56:48.309Z,8.52
2017-11-12T11:59:16.206Z,8.25
2017-11-12T12:01:44.438Z,6.32
2017-11-12T12:04:11.904Z,7.00
2017-11-12T12:06:39.372Z,6.18
2017-11-12T12:09:06.821Z,8.10
2017-11-12T12:11:35.722Z,7.87
2017-11-12T12:14:03.961Z,6.53
2017-11-12T12:16:31.954Z,5.20
2017-11-12T12:18:59.432Z,5.00
2017-11-12T12:21:26.874Z,5.50
2017-11-12T12:23:54.325Z,5.00
2017-11-12T12:26:22.538Z,6.57
2017-11-12T12:28:50.790Z,5.70
2017-11-12T12:31:18.257Z,6.22
2017-11-12T12:33:45.697Z,7.95
2017-11-12T12:36:13.165Z,7.05
2017-11-12T12:38:40.609Z,6.35
2017-11-12T12:41:09.073Z,6.25
2017-11-12T12:43:36.529Z,5.10
2017-11-12T12:46:03.989Z,4.07
2017-11-12T12:48:31.425Z,4.95
2017-11-12T12:50:58.924Z,4.30
2017-11-12T12:53:27.154Z,3.45
2017-11-12T12:55:54.616Z,3.45
2017-11-12T12:58:22.077Z,3.03
2017-11-12T13:00:49.540Z,3.10
2017-11-12T13:03:17.780Z,2.30
2017-11-12T13:05:45.225Z,2.70
2017-11-12T13:08:12.698Z,2.50
2017-11-12T13:10:40.138Z,2.50
2017-11-12T13:13:07.574Z,2.75
2017-11-12T13:15:35.026Z,2.58
2017-11-12T13:18:02.466Z,3.15
2017-11-12T13:20:30.680Z,3.83
2017-11-12T13:22:58.126Z,3.65
2017-11-12T13:25:26.360Z,3.33
2017-11-12T13:27:53.805Z,3.80
2017-11-12T13:30:22.077Z,3.37
2017-11-12T13:32:49.543Z,3.45
2017-11-12T13:35:16.995Z,3.37
2017-11-12T13:37:44.455Z,3.75
2017-11-12T13:40:11.982Z,3.30
2017-11-12T13:42:39.431Z,3.30
2017-11-12T13:45:06.896Z,3.30
2017-11-12T13:47:38.385Z,2.80
2017-11-12T13:50:06.009Z,3.45
2017-11-12T13:52:34.237Z,3.62
2017-11-12T13:55:01.693Z,3.65
2017-11-12T13:57:29.151Z,4.22
2017-11-12T13:59:56.604Z,4.05
2017-11-12T14:02:24.921Z,4.45
2017-11-12T14:04:52.378Z,4.95
2017-11-12T14:07:20.606Z,4.40
2017-11-12T14:09:48.050Z,5.35
2017-11-12T14:12:16.288Z,4.75
2017-11-12T14:14:43.739Z,4.10
2017-11-12T14:17:11.178Z,4.10
2017-11-12T14:19:39.413Z,4.25
2017-11-12T14:22:06.850Z,3.87
2017-11-12T14:24:35.046Z,4.05
2017-11-12T14:27:04.100Z,4.20
2017-11-12T14:29:31.529Z,3.60
2017-11-12T14:31:59.755Z,3.62
2017-11-12T14:34:27.190Z,4.18
2017-11-12T14:36:55.424Z,3.47
2017-11-12T14:39:23.624Z,3.55
2017-11-12T14:41:51.102Z,3.10
2017-11-12T14:44:18.549Z,3.60
2017-11-12T14:46:46.037Z,3.42
2017-11-12T14:49:13.496Z,3.40
2017-11-12T14:51:40.953Z,3.58
2017-11-12T14:54:09.167Z,3.78
2017-11-12T14:56:36.658Z,3.22
2017-11-12T14:59:04.124Z,3.65
2017-11-12T15:01:31.624Z,3.05
2017-11-12T15:03:59.055Z,2.95
2017-11-12T15:06:27.270Z,3.08
2017-11-12T15:08:54.729Z,2.55
2017-11-12T15:11:22.846Z,3.00
2017-11-12T15:13:50.290Z,3.80
2017-11-12T15:16:17.734Z,3.37
2017-11-12T15:18:45.218Z,4.05
2017-11-12T15:21:12.634Z,3.70
2017-11-12T15:23:40.126Z,2.78
2017-11-12T15:26:07.564Z,2.95
2017-11-12T15:28:35.146Z,3.50
2017-11-12T15:31:03.373Z,3.20
2017-11-12T15:33:30.835Z,3.42
2017-11-12T15:35:58.278Z,4.05
2017-11-12T15:38:26.482Z,4.00
2017-11-12T15:40:53.958Z,3.60
2017-11-12T15:43:21.410Z,4.22
2017-11-12T15:45:49.659Z,4.90
2017-11-12T15:48:17.400Z,3.55
2017-11-12T15:50:46.300Z,2.80
2017-11-12T15:53:14.563Z,4.57
2017-11-12T15:55:42.228Z,3.87
2017-11-12T15:58:09.684Z,3.33
2017-11-12T16:00:37.146Z,3.15
2017-11-12T16:03:04.608Z,4.30
2017-11-12T16:05:32.149Z,4.60
2017-11-12T16:08:00.384Z,3.95
2017-11-12T16:10:27.891Z,3.37
2017-11-12T16:12:56.007Z,2.80
2017-11-12T16:15:23.476Z,3.53
2017-11-12T16:17:50.954Z,3.92
2017-11-12T16:20:18.402Z,3.67
2017-11-12T16:22:45.850Z,4.03
2017-11-12T16:25:13.622Z,4.03
2017-11-12T16:27:41.823Z,4.12
2017-11-12T16:30:10.072Z,4.43
2017-11-12T16:32:37.518Z,3.90
2017-11-12T16:35:04.973Z,4.65
2017-11-12T16:37:32.459Z,4.37
2017-11-12T16:39:59.962Z,5.12
2017-11-12T16:42:27.401Z,4.30
2017-11-12T16:44:54.847Z,4.20
2017-11-12T16:47:22.334Z,6.78
2017-11-12T16:49:50.552Z,5.55
2017-11-12T16:52:17.987Z,5.22
2017-11-12T16:54:47.729Z,5.45
2017-11-12T16:57:15.255Z,5.43
2017-11-12T16:59:42.724Z,5.75
2017-11-12T17:02:10.206Z,6.12
2017-11-12T17:04:38.710Z,5.55
2017-11-12T17:07:06.184Z,5.40
2017-11-12T17:09:33.646Z,5.35
2017-11-12T17:12:01.098Z,5.85
2017-11-12T17:14:28.577Z,4.53
2017-11-12T17:16:56.036Z,5.05
2017-11-12T17:19:23.503Z,6.25
2017-11-12T17:21:51.383Z,6.20
2017-11-12T17:24:19.694Z,5.03
2017-11-12T17:26:47.206Z,5.82
2017-11-12T17:29:15.454Z,6.10
2017-11-12T17:31:42.942Z,6.93
2017-11-12T17:34:10.775Z,5.80
2017-11-12T17:36:38.261Z,5.30
2017-11-12T17:39:06.511Z,4.55
2017-11-12T17:41:35.056Z,5.12
2017-11-12T17:44:03.350Z,4.85
2017-11-12T17:46:31.591Z,4.65
2017-11-12T17:48:59.027Z,3.95
2017-11-12T17:51:27.242Z,4.10
2017-11-12T17:53:54.734Z,3.37
2017-11-12T17:56:22.436Z,3.75
2017-11-12T17:58:49.946Z,3.37
2017-11-12T18:01:18.795Z,4.12
2017-11-12T18:03:46.283Z,4.28
2017-11-12T18:06:13.773Z,4.18
2017-11-12T18:08:41.258Z,3.67
2017-11-12T18:11:08.737Z,4.60
2017-11-12T18:13:36.288Z,2.87
2017-11-12T18:16:03.747Z,3.92
2017-11-12T18:18:31.474Z,3.37
2017-11-12T18:20:59.733Z,3.05
2017-11-12T18:23:27.190Z,3.33
2017-11-12T18:25:54.647Z,3.20
2017-11-12T18:28:22.132Z,3.45
2017-11-12T18:30:49.689Z,3.42
2017-11-12T18:33:17.176Z,2.55
2017-11-12T18:35:44.617Z,2.67
2017-11-12T18:38:12.859Z,2.90
2017-11-12T18:40:40.554Z,3.03
2017-11-12T18:43:08.000Z,3.40
2017-11-12T18:45:35.524Z,4.10
2017-11-12T18:48:03.012Z,5.43
2017-11-12T18:50:30.586Z,5.28
2017-11-12T18:52:58.869Z,6.20
2017-11-12T18:55:41.017Z,7.60
2017-11-12T18:58:12.129Z,7.90
2017-11-12T19:00:56.636Z,8.52
2017-11-12T19:03:37.631Z,8.93
2017-11-12T19:06:06.007Z,8.43
2017-11-12T19:08:37.203Z,7.32
2017-11-12T19:11:04.658Z,7.28
2017-11-12T19:13:32.173Z,8.88
2017-11-12T19:16:00.654Z,6.75
2017-11-12T19:18:43.084Z,7.47
2017-11-12T19:21:10.540Z,7.62
2017-11-12T19:23:39.972Z,8.68
2017-11-12T19:26:22.410Z,8.48
2017-11-12T19:28:50.516Z,9.40
2017-11-12T19:31:18.010Z,8.95
2017-11-12T19:33:45.562Z,8.15
2017-11-12T19:36:13.092Z,7.57
2017-11-12T19:41:12.715Z,9.35
2017-11-12T19:43:40.979Z,8.40
2017-11-12T19:46:08.438Z,9.02
2017-11-12T19:48:35.947Z,8.45
2017-11-12T19:51:04.482Z,8.23
2017-11-12T19:53:32.974Z,8.25
2017-11-12T19:56:02.148Z,8.63
2017-11-12T19:58:30.513Z,8.10
2017-11-12T20:00:57.968Z,8.55
2017-11-12T20:03:25.439Z,8.25
2017-11-12T20:05:53.425Z,7.70
2017-11-12T20:08:21.683Z,6.85
2017-11-12T20:10:49.130Z,7.25
2017-11-12T20:13:16.590Z,6.90
2017-11-12T20:15:44.046Z,7.55
2017-11-12T20:18:12.163Z,7.40
2017-11-12T20:20:39.797Z,7.95
2017-11-12T20:23:08.059Z,7.32
2017-11-12T20:25:39.721Z,7.95
2017-11-12T20:28:07.211Z,9.10
2017-11-12T20:30:34.739Z,7.47
2017-11-12T20:33:02.240Z,7.40
2017-11-12T20:35:29.755Z,7.20
2017-11-12T20:37:57.247Z,6.65
2017-11-12T20:40:25.506Z,7.25
2017-11-12T20:42:52.973Z,6.90
2017-11-12T20:45:20.446Z,7.57
2017-11-12T20:47:47.976Z,7.97
2017-11-12T20:50:15.449Z,6.70
2017-11-12T20:52:45.058Z,6.62
2017-11-12T20:55:13.199Z,6.90
2017-11-12T20:57:40.700Z,6.10
2017-11-12T21:00:08.165Z,7.07
2017-11-12T21:02:36.614Z,6.93
2017-11-12T21:05:08.754Z,7.25
2017-11-12T21:07:36.257Z,6.82
2017-11-12T21:10:04.724Z,6.95
2017-11-12T21:12:32.183Z,6.32
2017-11-12T21:14:59.751Z,6.45
2017-11-12T21:17:27.268Z,7.10
2017-11-12T21:19:56.330Z,6.00
2017-11-12T21:22:27.400Z,7.40
2017-11-12T21:24:55.223Z,7.72
2017-11-12T21:27:29.026Z,6.53
2017-11-12T21:29:58.162Z,7.18
2017-11-12T21:32:37.259Z,7.75
2017-11-12T21:35:16.230Z,7.37
2017-11-12T21:37:44.442Z,7.25
2017-11-12T21:40:11.991Z,6.80
2017-11-12T21:42:39.699Z,5.80
2017-11-12T21:45:07.233Z,7.68
2017-11-12T21:47:34.698Z,7.10
2017-11-12T21:50:02.213Z,7.37
2017-11-12T21:52:30.426Z,7.18
2017-11-12T21:54:57.921Z,7.45
2017-11-12T21:57:25.411Z,6.93
2017-11-12T21:59:52.899Z,7.43
2017-11-12T22:02:21.306Z,6.45
2017-11-12T22:04:48.780Z,6.87
2017-11-12T22:07:16.229Z,7.18
2017-11-12T22:09:44.507Z,6.53
2017-11-12T22:12:11.970Z,5.93
2017-11-12T22:14:39.477Z,6.75
2017-11-12T22:17:06.948Z,6.45
2017-11-12T22:19:34.424Z,6.75
2017-11-12T22:22:01.922Z,6.50
2017-11-12T22:24:29.368Z,8.80
2017-11-12T22:26:56.827Z,7.15
2017-11-12T22:29:24.915Z,7.95
2017-11-12T22:31:52.373Z,7.65
2017-11-12T22:34:19.842Z,7.50
2017-11-12T22:36:52.066Z,8.52
2017-11-12T22:39:19.515Z,7.80
2017-11-12T22:41:46.986Z,8.02
2017-11-12T22:44:14.537Z,8.20
2017-11-12T22:46:42.753Z,8.73
2017-11-12T22:49:10.260Z,8.32
2017-11-12T22:51:37.713Z,8.13
2017-11-12T22:54:05.180Z,7.75
2017-11-12T22:56:32.604Z,8.73
2017-11-12T22:59:00.102Z,7.87
2017-11-12T23:01:27.533Z,8.50
2017-11-12T23:03:54.986Z,7.85
2017-11-12T23:06:23.206Z,8.30
2017-11-12T23:08:54.636Z,7.20
2017-11-12T23:11:22.122Z,8.07
2017-11-12T23:13:49.618Z,7.65
2017-11-12T23:16:17.067Z,7.50
2017-11-12T23:18:44.521Z,9.02
2017-11-12T23:21:12.733Z,8.73
2017-11-12T23:23:40.206Z,7.82
2017-11-12T23:26:07.676Z,7.87
2017-11-12T23:28:35.260Z,7.57
2017-11-12T23:31:02.699Z,8.20
2017-11-12T23:33:30.147Z,9.38
2017-11-12T23:35:57.578Z,8.38
2017-11-12T23:38:25.030Z,8.18
2017-11-12T23:40:53.250Z,8.70
2017-11-12T23:43:26.090Z,8.70
2017-11-12T23:45:53.552Z,8.88
2017-11-12T23:48:20.993Z,8.57
2017-11-12T23:50:48.484Z,9.00
2017-11-12T23:53:15.928Z,8.80
2017-11-12T23:55:44.157Z,8.05
2017-11-12T23:58:11.582Z,8.63
